createdAt,value
2022-09-22T00:01:03.894Z,100
2022-09-22T00:06:06.389Z,100
2022-09-22T00:11:08.902Z,100
2022-09-22T00:16:11.695Z,100
2022-09-22T00:21:16.993Z,100
2022-09-22T00:26:22.425Z,100
2022-09-22T00:31:25.306Z,100
2022-09-22T00:36:27.857Z,100
2022-09-22T00:41:30.394Z,100
2022-09-22T00:46:33.235Z,100
2022-09-22T00:51:35.888Z,100
2022-09-22T00:56:38.768Z,100
2022-09-22T01:01:41.319Z,100
2022-09-22T01:06:43.881Z,100
2022-09-22T01:11:46.563Z,100
2022-09-22T01:16:49.178Z,100
2022-09-22T01:21:51.678Z,100
2022-09-22T01:26:54.240Z,100
2022-09-22T01:31:56.857Z,100
2022-09-22T01:36:59.763Z,100
2022-09-22T01:42:05.407Z,100
2022-09-22T01:52:10.624Z,100
2022-09-22T01:57:13.100Z,100
2022-09-22T02:02:15.703Z,100
2022-09-22T02:07:18.111Z,100
2022-09-22T02:12:20.495Z,100
2022-09-22T02:17:23.068Z,100
2022-09-22T02:22:25.719Z,100
2022-09-22T02:27:28.373Z,100
2022-09-22T02:42:36.381Z,100
2022-09-22T02:47:39.058Z,100
2022-09-22T02:52:41.665Z,100
2022-09-22T02:57:44.267Z,100
2022-09-22T03:02:46.767Z,100
2022-09-22T03:07:49.448Z,100
2022-09-22T03:17:54.759Z,100
2022-09-22T03:22:57.450Z,100
2022-09-22T03:28:00.026Z,100
2022-09-22T03:33:02.693Z,100
2022-09-22T03:38:05.376Z,100
2022-09-22T03:43:09.373Z,100
2022-09-22T03:53:13.329Z,100
2022-09-22T03:58:15.992Z,100
2022-09-22T04:03:18.599Z,100
2022-09-22T04:08:21.142Z,100
2022-09-22T04:13:23.675Z,100
2022-09-22T04:18:26.420Z,100
2022-09-22T04:28:31.497Z,100
2022-09-22T04:33:34.290Z,100
2022-09-22T04:38:36.815Z,100
2022-09-22T04:43:39.265Z,100
2022-09-22T04:48:42.104Z,100
2022-09-22T04:53:44.825Z,100
2022-09-22T04:58:47.377Z,100
2022-09-22T05:03:49.990Z,100
2022-09-22T05:08:52.788Z,100
2022-09-22T05:13:55.347Z,100
2022-09-22T05:18:57.908Z,100
2022-09-22T05:24:00.711Z,100
2022-09-22T05:29:03.243Z,100
2022-09-22T05:34:06.160Z,100
2022-09-22T05:39:08.926Z,100
2022-09-22T05:44:11.524Z,100
2022-09-22T05:49:14.245Z,100
2022-09-22T05:54:20.090Z,100
2022-09-22T05:59:19.942Z,100
2022-09-22T06:04:22.512Z,100
2022-09-22T06:09:25.406Z,100
2022-09-22T06:14:27.927Z,100
2022-09-22T06:24:33.366Z,100
2022-09-22T06:29:36.241Z,100
2022-09-22T06:34:39.116Z,100
2022-09-22T06:39:42.080Z,100
2022-09-22T06:44:44.643Z,100
2022-09-22T06:54:52.590Z,100
2022-09-22T06:59:53.135Z,100
2022-09-22T07:04:55.913Z,100
2022-09-22T07:20:04.102Z,100
2022-09-22T07:25:09.276Z,100
2022-09-22T07:35:14.673Z,100
2022-09-22T07:40:17.590Z,100
2022-09-22T07:50:23.195Z,100
2022-09-22T07:55:26.256Z,100
2022-09-22T08:00:32.145Z,100
2022-09-22T08:05:34.487Z,100
2022-09-22T08:10:37.131Z,100
2022-09-22T08:15:39.834Z,100
2022-09-22T08:20:44.890Z,100
2022-09-22T08:25:45.384Z,100
2022-09-22T08:30:48.047Z,100
2022-09-22T08:40:53.286Z,100
2022-09-22T08:45:56.192Z,100
2022-09-22T08:50:58.902Z,100
2022-09-22T08:56:03.776Z,100
2022-09-22T09:01:06.738Z,100
2022-09-22T09:06:09.350Z,100
2022-09-22T09:11:12.148Z,100
2022-09-22T09:16:14.693Z,100
2022-09-22T09:21:17.629Z,100
2022-09-22T09:31:23.116Z,100
2022-09-22T09:41:27.899Z,100
2022-09-22T09:46:30.708Z,100
2022-09-22T09:51:33.435Z,100
2022-09-22T09:56:35.929Z,100
2022-09-22T10:01:38.666Z,94.24512
2022-09-22T10:06:41.240Z,93.18066
2022-09-22T10:11:44.055Z,98.5498
2022-09-22T10:16:49.899Z,83.27246
2022-09-22T10:21:52.731Z,72.05762
2022-09-22T10:26:55.836Z,71.32227
2022-09-22T10:31:58.606Z,61.73242
2022-09-22T10:37:01.332Z,70.08594
2022-09-22T10:42:46.423Z,65.48633
2022-09-22T10:47:50.078Z,62.38867
2022-09-22T10:52:52.927Z,57.35645
2022-09-22T10:57:55.687Z,62.32422
2022-09-22T11:02:58.132Z,63.93066
2022-09-22T11:13:02.962Z,77.94531
2022-09-22T11:18:05.499Z,82.27832
2022-09-22T11:23:08.276Z,73.82031
2022-09-22T11:33:13.082Z,82.36523
2022-09-22T11:38:15.718Z,84.59277
2022-09-22T11:43:18.434Z,83.61133
2022-09-22T11:48:21.088Z,76.11523
2022-09-22T11:53:23.613Z,79.52051
2022-09-22T11:58:26.379Z,80.52441
2022-09-22T12:03:29.264Z,87.84961
2022-09-22T12:08:31.618Z,87.41504
2022-09-22T12:18:36.958Z,95.9043
2022-09-22T12:23:39.661Z,91.94141
2022-09-22T12:28:42.010Z,89.73047
2022-09-22T12:33:44.578Z,87.45117
2022-09-22T12:38:47.108Z,82.2832
2022-09-22T12:43:49.858Z,81.79004
2022-09-22T12:53:55.173Z,76.38574
2022-09-22T12:58:58.106Z,73.47852
2022-09-22T13:09:03.288Z,68.66992
2022-09-22T13:14:06.207Z,68.21094
2022-09-22T13:19:08.990Z,69.67969
2022-09-22T13:24:15.345Z,69.2998
2022-09-22T13:29:14.145Z,72.07129
2022-09-22T13:34:16.797Z,71.54492
2022-09-22T13:39:19.673Z,75.6709
2022-09-22T13:44:22.344Z,71.22266
2022-09-22T13:49:24.958Z,75.00488
2022-09-22T13:54:27.660Z,71.64941
2022-09-22T13:59:30.335Z,68.59277
2022-09-22T14:04:35.817Z,67.97266
2022-09-22T14:09:38.877Z,63.45996
2022-09-22T14:14:41.786Z,62.24512
2022-09-22T14:19:44.508Z,62.21582
2022-09-22T14:24:47.525Z,62.37598
2022-09-22T14:29:50.222Z,64.50781
2022-09-22T14:34:52.991Z,63.94238
2022-09-22T14:39:55.746Z,66.04395
2022-09-22T14:50:01.133Z,63.75684
2022-09-22T14:55:03.918Z,63.33105
2022-09-22T15:00:06.414Z,62.93262
2022-09-22T15:05:09.006Z,68.85938
2022-09-22T15:10:11.641Z,64.16211
2022-09-22T15:15:14.390Z,64.42773
2022-09-22T15:20:17.014Z,68.56445
2022-09-22T15:25:19.609Z,66.75195
2022-09-22T15:30:22.289Z,68.98535
2022-09-22T15:40:28.314Z,72.96387
2022-09-22T15:45:31.084Z,74.13965
2022-09-22T15:50:33.698Z,76.52441
2022-09-22T15:55:36.328Z,77.91113
2022-09-22T16:00:39.025Z,87.38672
2022-09-22T16:05:41.802Z,94.41797
2022-09-22T16:10:44.548Z,100
2022-09-22T16:15:47.098Z,100
2022-09-22T16:20:49.702Z,100
2022-09-22T16:25:52.344Z,100
2022-09-22T16:30:55.179Z,100
2022-09-22T16:35:57.644Z,100
2022-09-22T16:41:00.418Z,100
2022-09-22T16:46:02.937Z,100
2022-09-22T16:51:05.681Z,100
2022-09-22T16:56:09.024Z,100
2022-09-22T17:01:12.158Z,100
2022-09-22T17:06:20.934Z,100
2022-09-22T17:11:23.455Z,100
2022-09-22T17:16:26.098Z,100
2022-09-22T17:21:32.337Z,100
2022-09-22T17:26:31.448Z,100
2022-09-22T17:31:34.162Z,100
2022-09-22T17:36:37.315Z,100
2022-09-22T17:41:43.785Z,100
2022-09-22T17:46:42.384Z,100
2022-09-22T17:51:44.946Z,100
2022-09-22T17:56:47.700Z,100
2022-09-22T18:01:53.454Z,100
2022-09-22T18:06:52.822Z,100
2022-09-22T18:11:55.347Z,100
2022-09-22T18:16:58.252Z,100
2022-09-22T18:27:03.474Z,100
2022-09-22T18:32:06.370Z,100
2022-09-22T18:37:08.994Z,100
2022-09-22T18:42:11.787Z,100
2022-09-22T18:47:14.388Z,100
2022-09-22T18:52:16.943Z,100
2022-09-22T18:57:19.682Z,100
2022-09-22T19:02:23.291Z,100
2022-09-22T19:07:25.487Z,100
2022-09-22T19:12:28.092Z,100
2022-09-22T19:17:30.763Z,100
2022-09-22T19:22:33.464Z,100
2022-09-22T19:27:36.315Z,100
2022-09-22T19:32:38.948Z,100
2022-09-22T19:37:41.754Z,100
2022-09-22T19:42:44.492Z,100
2022-09-22T19:52:49.931Z,100
2022-09-22T19:57:52.606Z,100
2022-09-22T20:02:55.183Z,100
2022-09-22T20:07:57.606Z,100
2022-09-22T20:13:00.536Z,100
2022-09-22T20:18:03.132Z,100
2022-09-22T20:23:05.825Z,100
2022-09-22T20:28:08.631Z,100
2022-09-22T20:33:11.233Z,100
2022-09-22T20:43:16.407Z,100
2022-09-22T20:58:24.408Z,100
2022-09-22T21:08:29.576Z,100
2022-09-22T21:13:35.003Z,100
2022-09-22T21:18:40.316Z,100
2022-09-22T21:23:43.008Z,100
2022-09-22T21:28:45.890Z,100
2022-09-22T21:33:51.407Z,100
2022-09-22T21:38:53.975Z,100
2022-09-22T21:43:56.709Z,100
2022-09-22T21:48:59.438Z,100
2022-09-22T21:54:02.141Z,100
2022-09-22T21:59:09.765Z,100
2022-09-22T22:04:12.583Z,100
2022-09-22T22:09:15.086Z,100
2022-09-22T22:19:20.122Z,100
2022-09-22T22:24:22.549Z,100
2022-09-22T22:29:25.357Z,100
2022-09-22T22:34:28.044Z,100
2022-09-22T22:39:33.468Z,100
2022-09-22T22:44:36.010Z,100
2022-09-22T22:49:38.478Z,100
2022-09-22T22:59:46.464Z,100
2022-09-22T23:09:51.757Z,100
2022-09-22T23:14:54.299Z,100
2022-09-22T23:19:56.917Z,100
2022-09-22T23:24:59.405Z,100
2022-09-22T23:30:01.952Z,100
2022-09-22T23:40:10.419Z,100
2022-09-22T23:45:13.082Z,100
